Time;durP1;ratioP1;P1;durP2;ratioP2;P2;SDS_P1;SDS_P2;PMS_P1;PMS_P2;Temp;Humidity;BMP_temperature;BMP_pressure;BME280_temperature;BME280_humidity;BME280_pressure;Samples;Min_cycle;Max_cycle;Signal;HPM_P1;HPM_P2
2024/01/08 00:00:18;;;;;;;7.38;3.60;;;;;;;;;;5068094;28;20049;-67
2024/01/08 00:02:47;;;;;;;3.95;3.28;;;;;;;;;;5067556;28;20795;-67
2024/01/08 00:05:15;;;;;;;5.65;3.30;;;;;;;;;;5066852;28;20098;-68
2024/01/08 00:07:44;;;;;;;3.95;2.45;;;;;;;;;;5069068;28;20370;-67
2024/01/08 00:10:12;;;;;;;4.15;2.72;;;;;;;;;;5067471;28;20055;-67
2024/01/08 00:12:42;;;;;;;3.88;2.67;;;;;;;;;;5069721;28;20036;-67
2024/01/08 00:15:11;;;;;;;5.22;3.20;;;;;;;;;;5067642;28;20481;-67
2024/01/08 00:17:39;;;;;;;4.13;3.20;;;;;;;;;;5068131;28;20047;-67
2024/01/08 00:20:09;;;;;;;4.78;2.78;;;;;;;;;;5069857;28;20105;-67
2024/01/08 00:22:38;;;;;;;6.20;3.03;;;;;;;;;;5066826;28;20447;-67
2024/01/08 00:25:07;;;;;;;3.85;2.75;;;;;;;;;;5068211;28;20059;-67
2024/01/08 00:27:35;;;;;;;4.00;3.13;;;;;;;;;;5067872;28;20076;-67
2024/01/08 00:30:06;;;;;;;4.65;2.90;;;;;;;;;;5067818;28;20056;-67
2024/01/08 00:32:34;;;;;;;4.57;2.65;;;;;;;;;;5069276;28;20044;-67
2024/01/08 00:35:04;;;;;;;4.97;3.03;;;;;;;;;;5068017;28;20048;-67
2024/01/08 00:37:35;;;;;;;4.28;3.20;;;;;;;;;;5064182;28;20128;-67
2024/01/08 00:40:04;;;;;;;4.78;2.60;;;;;;;;;;5069385;28;20098;-67
2024/01/08 00:42:32;;;;;;;5.43;3.10;;;;;;;;;;5067350;28;20059;-67
2024/01/08 00:45:01;;;;;;;3.97;2.83;;;;;;;;;;5068477;28;20048;-67
2024/01/08 00:47:31;;;;;;;5.45;2.83;;;;;;;;;;5066583;28;20051;-67
2024/01/08 00:50:00;;;;;;;2.95;2.30;;;;;;;;;;5067312;28;20090;-67
2024/01/08 00:52:30;;;;;;;3.92;2.70;;;;;;;;;;5066514;28;20074;-67
2024/01/08 00:55:03;;;;;;;3.60;2.42;;;;;;;;;;5066436;28;20080;-67
2024/01/08 00:57:32;;;;;;;4.13;3.15;;;;;;;;;;5064639;28;20051;-67
2024/01/08 01:00:00;;;;;;;3.03;2.40;;;;;;;;;;5067430;28;20040;-67
2024/01/08 01:02:29;;;;;;;2.53;2.33;;;;;;;;;;5063887;28;20545;-67
2024/01/08 01:04:59;;;;;;;2.70;2.28;;;;;;;;;;5063019;28;20147;-67
2024/01/08 01:07:28;;;;;;;4.55;2.45;;;;;;;;;;5062557;28;20044;-67
2024/01/08 01:09:56;;;;;;;3.63;2.67;;;;;;;;;;5068204;28;20110;-67
2024/01/08 01:12:24;;;;;;;3.67;2.60;;;;;;;;;;5066778;28;20098;-67
2024/01/08 01:14:53;;;;;;;3.95;2.40;;;;;;;;;;5068329;28;20513;-67
2024/01/08 01:17:21;;;;;;;3.00;2.30;;;;;;;;;;5065604;28;20052;-67
2024/01/08 01:19:50;;;;;;;2.72;2.45;;;;;;;;;;5067786;28;20123;-67
2024/01/08 01:22:19;;;;;;;2.65;2.17;;;;;;;;;;5064912;28;20044;-67
2024/01/08 01:24:48;;;;;;;3.90;2.78;;;;;;;;;;5066527;28;20041;-67
2024/01/08 01:27:16;;;;;;;3.55;2.47;;;;;;;;;;5066189;28;20468;-67
2024/01/08 01:29:45;;;;;;;2.65;2.45;;;;;;;;;;5063013;28;20068;-67
2024/01/08 01:32:13;;;;;;;4.07;2.60;;;;;;;;;;5065752;28;20048;-65
2024/01/08 01:34:42;;;;;;;2.80;2.03;;;;;;;;;;5065714;28;20036;-67
2024/01/08 01:37:11;;;;;;;3.22;2.15;;;;;;;;;;5066930;28;20044;-67
2024/01/08 01:39:40;;;;;;;2.83;2.00;;;;;;;;;;5065519;28;20082;-67
2024/01/08 01:42:09;;;;;;;3.53;2.13;;;;;;;;;;5066830;28;20383;-67
2024/01/08 01:44:37;;;;;;;3.95;2.70;;;;;;;;;;5066361;28;20052;-67
2024/01/08 01:47:06;;;;;;;2.78;2.28;;;;;;;;;;5065150;28;20061;-67
2024/01/08 01:49:34;;;;;;;4.35;2.50;;;;;;;;;;5061733;28;20054;-67
2024/01/08 01:52:03;;;;;;;3.50;2.17;;;;;;;;;;5061321;28;20055;-67
2024/01/08 01:54:31;;;;;;;3.35;2.72;;;;;;;;;;5064079;28;20040;-67
2024/01/08 01:57:02;;;;;;;5.05;2.85;;;;;;;;;;5067461;28;20097;-67
2024/01/08 01:59:30;;;;;;;4.80;2.83;;;;;;;;;;5066060;28;20075;-67
2024/01/08 02:01:59;;;;;;;4.00;2.70;;;;;;;;;;5066711;28;20056;-67
2024/01/08 02:04:30;;;;;;;3.05;2.20;;;;;;;;;;5064985;28;20493;-67
2024/01/08 02:07:00;;;;;;;4.00;2.45;;;;;;;;;;5062133;28;20040;-67
2024/01/08 02:09:28;;;;;;;2.88;2.58;;;;;;;;;;5066347;28;20052;-67
2024/01/08 02:11:57;;;;;;;2.28;1.75;;;;;;;;;;5064284;28;20077;-67
2024/01/08 02:14:27;;;;;;;3.08;2.08;;;;;;;;;;5063852;28;20398;-67
2024/01/08 02:16:55;;;;;;;3.38;2.35;;;;;;;;;;5066338;28;20143;-67
2024/01/08 02:19:24;;;;;;;2.42;2.05;;;;;;;;;;5063516;28;20412;-67
2024/01/08 02:21:52;;;;;;;3.50;2.75;;;;;;;;;;5064581;28;20036;-67
2024/01/08 02:24:22;;;;;;;2.75;2.20;;;;;;;;;;5066287;28;20052;-67
2024/01/08 02:26:50;;;;;;;3.10;2.50;;;;;;;;;;5064952;28;20109;-67
2024/01/08 02:29:19;;;;;;;3.42;2.45;;;;;;;;;;5065297;28;20057;-67
2024/01/08 02:31:48;;;;;;;2.95;2.10;;;;;;;;;;5064717;28;20044;-67
2024/01/08 02:34:16;;;;;;;2.88;2.28;;;;;;;;;;5064210;28;20099;-67
2024/01/08 02:36:45;;;;;;;2.75;2.20;;;;;;;;;;5066001;28;20553;-66
2024/01/08 02:39:13;;;;;;;2.92;2.30;;;;;;;;;;5066843;28;20106;-67
2024/01/08 02:41:43;;;;;;;2.88;2.60;;;;;;;;;;5066332;28;20045;-67
2024/01/08 02:44:11;;;;;;;2.70;2.30;;;;;;;;;;5064481;28;20294;-67
2024/01/08 02:46:40;;;;;;;2.80;2.47;;;;;;;;;;5065048;28;20041;-67
2024/01/08 02:49:08;;;;;;;2.92;2.50;;;;;;;;;;5062781;28;20040;-67
2024/01/08 02:51:37;;;;;;;4.53;2.50;;;;;;;;;;5068312;28;20389;-68
2024/01/08 02:54:05;;;;;;;3.83;2.60;;;;;;;;;;5066182;28;20068;-67
2024/01/08 02:56:33;;;;;;;2.90;2.53;;;;;;;;;;5064207;28;20455;-67
2024/01/08 02:59:06;;;;;;;2.67;2.22;;;;;;;;;;5065886;28;20485;-67
2024/01/08 03:01:36;;;;;;;3.03;2.30;;;;;;;;;;5066698;28;20054;-67
2024/01/08 03:04:04;;;;;;;3.00;2.45;;;;;;;;;;5065912;28;20067;-67
2024/01/08 03:06:33;;;;;;;3.33;2.30;;;;;;;;;;5064232;28;20049;-67
2024/01/08 03:09:01;;;;;;;2.38;2.17;;;;;;;;;;5065985;28;20045;-67
2024/01/08 03:11:30;;;;;;;3.08;1.95;;;;;;;;;;5065575;28;20579;-67
2024/01/08 03:13:58;;;;;;;4.43;2.47;;;;;;;;;;5064878;28;20136;-67
2024/01/08 03:16:28;;;;;;;3.33;2.25;;;;;;;;;;5066743;28;20076;-67
2024/01/08 03:18:56;;;;;;;4.25;3.15;;;;;;;;;;5065988;28;20413;-67
2024/01/08 03:21:25;;;;;;;6.13;2.58;;;;;;;;;;5064757;28;20106;-67
2024/01/08 03:23:53;;;;;;;2.63;2.22;;;;;;;;;;5064946;28;20060;-67
2024/01/08 03:26:22;;;;;;;3.22;2.38;;;;;;;;;;5064755;28;20134;-67
2024/01/08 03:28:50;;;;;;;4.97;2.78;;;;;;;;;;5067385;28;20068;-67
2024/01/08 03:31:19;;;;;;;3.50;2.22;;;;;;;;;;5069531;28;20048;-67
2024/01/08 03:33:49;;;;;;;3.30;2.30;;;;;;;;;;5068326;28;20064;-67
2024/01/08 03:36:17;;;;;;;3.90;2.78;;;;;;;;;;5067550;28;20048;-67
2024/01/08 03:38:45;;;;;;;5.20;2.95;;;;;;;;;;5068443;28;20044;-67
2024/01/08 03:41:14;;;;;;;4.03;2.60;;;;;;;;;;5066219;28;20133;-67
2024/01/08 03:43:43;;;;;;;3.22;2.47;;;;;;;;;;5068093;28;20040;-67
2024/01/08 03:46:12;;;;;;;3.63;2.72;;;;;;;;;;5067539;28;20150;-67
2024/01/08 03:48:40;;;;;;;3.90;2.75;;;;;;;;;;5067142;28;20041;-67
2024/01/08 03:51:10;;;;;;;5.05;2.25;;;;;;;;;;5070090;28;20045;-67
2024/01/08 03:53:38;;;;;;;3.30;2.35;;;;;;;;;;5067408;28;20048;-67
2024/01/08 03:56:07;;;;;;;3.17;2.60;;;;;;;;;;5068187;28;20052;-67
2024/01/08 03:58:38;;;;;;;5.82;3.30;;;;;;;;;;5068366;28;20052;-67
2024/01/08 04:01:06;;;;;;;3.33;2.72;;;;;;;;;;5067911;28;20048;-67
2024/01/08 04:03:35;;;;;;;4.68;3.38;;;;;;;;;;5067578;28;20048;-67
2024/01/08 04:06:04;;;;;;;3.78;2.67;;;;;;;;;;5067363;28;20040;-67
2024/01/08 04:08:34;;;;;;;3.65;2.70;;;;;;;;;;5068106;28;20107;-67
2024/01/08 04:11:03;;;;;;;2.97;2.25;;;;;;;;;;5069097;28;20044;-67
2024/01/08 04:13:32;;;;;;;3.08;2.38;;;;;;;;;;5067960;28;20087;-67
2024/01/08 04:16:00;;;;;;;3.35;2.40;;;;;;;;;;5066854;28;20476;-67
2024/01/08 04:18:29;;;;;;;3.05;2.42;;;;;;;;;;5068930;28;20125;-67
2024/01/08 04:20:57;;;;;;;4.15;2.55;;;;;;;;;;5068711;28;20056;-67
2024/01/08 04:23:25;;;;;;;3.63;2.67;;;;;;;;;;5065963;28;20591;-67
2024/01/08 04:25:55;;;;;;;3.20;2.45;;;;;;;;;;5066436;28;20086;-67
2024/01/08 04:28:24;;;;;;;3.90;2.47;;;;;;;;;;5069049;28;20045;-67
2024/01/08 04:30:52;;;;;;;2.33;2.00;;;;;;;;;;5069430;28;20485;-67
2024/01/08 04:33:21;;;;;;;2.90;2.55;;;;;;;;;;5067199;28;20056;-67
2024/01/08 04:35:49;;;;;;;3.28;2.55;;;;;;;;;;5068205;28;20445;-67
2024/01/08 04:38:18;;;;;;;3.42;2.40;;;;;;;;;;5067118;28;20424;-67
2024/01/08 04:40:46;;;;;;;2.20;2.00;;;;;;;;;;5068719;28;20048;-67
2024/01/08 04:43:16;;;;;;;4.05;2.47;;;;;;;;;;5067031;28;20560;-67
2024/01/08 04:45:44;;;;;;;3.13;2.47;;;;;;;;;;5063653;28;20048;-67
2024/01/08 04:48:13;;;;;;;2.22;1.88;;;;;;;;;;5060894;28;20469;-67
2024/01/08 04:50:41;;;;;;;4.00;2.53;;;;;;;;;;5064045;28;20033;-67
2024/01/08 04:53:10;;;;;;;3.78;2.90;;;;;;;;;;5067973;28;20060;-66
2024/01/08 04:55:38;;;;;;;2.50;2.30;;;;;;;;;;5067098;28;20626;-67
2024/01/08 04:58:07;;;;;;;4.25;2.78;;;;;;;;;;5067811;28;20076;-67
2024/01/08 05:00:37;;;;;;;5.05;2.30;;;;;;;;;;5066760;28;20048;-67
2024/01/08 05:03:05;;;;;;;3.30;2.30;;;;;;;;;;5065098;28;20065;-68
2024/01/08 05:05:34;;;;;;;3.90;2.72;;;;;;;;;;5066380;28;20432;-67
2024/01/08 05:08:03;;;;;;;3.55;2.85;;;;;;;;;;5066386;28;20520;-67
2024/01/08 05:10:32;;;;;;;3.00;2.50;;;;;;;;;;5066644;28;20048;-68
2024/01/08 05:13:00;;;;;;;4.40;2.70;;;;;;;;;;5063160;28;20056;-67
2024/01/08 05:15:29;;;;;;;5.10;2.88;;;;;;;;;;5065696;28;20379;-67
2024/01/08 05:17:58;;;;;;;4.65;2.80;;;;;;;;;;5065906;28;20057;-68
2024/01/08 05:20:30;;;;;;;4.43;2.42;;;;;;;;;;5067020;28;20505;-67
2024/01/08 05:22:59;;;;;;;3.80;2.63;;;;;;;;;;5061681;28;20045;-68
2024/01/08 05:25:27;;;;;;;4.32;2.80;;;;;;;;;;5063789;28;20461;-67
2024/01/08 05:27:55;;;;;;;2.95;2.22;;;;;;;;;;5063335;28;20075;-68
2024/01/08 05:30:24;;;;;;;3.85;2.55;;;;;;;;;;5063309;28;20129;-67
2024/01/08 05:32:53;;;;;;;4.00;2.95;;;;;;;;;;5066204;28;20412;-68
2024/01/08 05:35:23;;;;;;;3.30;2.47;;;;;;;;;;5067476;28;20555;-67
2024/01/08 05:37:52;;;;;;;3.58;2.45;;;;;;;;;;5063480;28;20110;-67
2024/01/08 05:40:20;;;;;;;4.10;2.90;;;;;;;;;;5065111;28;20041;-68
2024/01/08 05:42:48;;;;;;;3.67;3.00;;;;;;;;;;5065526;28;20342;-67
2024/01/08 05:45:17;;;;;;;2.92;2.67;;;;;;;;;;5064624;28;20489;-67
2024/01/08 05:47:47;;;;;;;3.17;2.88;;;;;;;;;;5065459;28;20136;-68
2024/01/08 05:50:16;;;;;;;3.15;2.67;;;;;;;;;;5063398;28;20049;-67
2024/01/08 05:52:46;;;;;;;2.70;2.30;;;;;;;;;;5059843;28;20048;-68
2024/01/08 05:55:15;;;;;;;3.63;2.70;;;;;;;;;;5066009;28;20105;-63
2024/01/08 05:57:43;;;;;;;4.63;2.88;;;;;;;;;;5065994;28;20060;-62
2024/01/08 06:00:12;;;;;;;3.17;2.45;;;;;;;;;;5067457;28;20139;-64
2024/01/08 06:02:41;;;;;;;3.95;2.88;;;;;;;;;;5067292;28;20052;-63
2024/01/08 06:05:10;;;;;;;3.30;2.53;;;;;;;;;;5067209;28;20517;-62
2024/01/08 06:07:43;;;;;;;5.75;3.00;;;;;;;;;;5067727;28;20175;-63
2024/01/08 06:10:13;;;;;;;3.60;2.70;;;;;;;;;;5067677;28;20059;-63
2024/01/08 06:12:41;;;;;;;4.97;3.05;;;;;;;;;;5066781;28;20596;-62
2024/01/08 06:15:10;;;;;;;4.30;2.92;;;;;;;;;;5065110;28;20105;-64
2024/01/08 06:17:38;;;;;;;3.25;2.53;;;;;;;;;;5067013;28;20076;-65
2024/01/08 06:20:13;;;;;;;3.63;2.42;;;;;;;;;;5064106;28;20076;-62
2024/01/08 06:22:42;;;;;;;3.33;2.67;;;;;;;;;;5067739;28;20040;-62
2024/01/08 06:25:10;;;;;;;3.92;2.80;;;;;;;;;;5066390;28;20052;-62
2024/01/08 06:27:40;;;;;;;2.70;2.42;;;;;;;;;;5065473;28;20048;-62
2024/01/08 06:30:09;;;;;;;4.80;3.10;;;;;;;;;;5065853;28;20090;-62
2024/01/08 06:32:38;;;;;;;4.85;2.80;;;;;;;;;;5065796;28;20048;-63
2024/01/08 06:35:07;;;;;;;4.50;2.97;;;;;;;;;;5066610;28;20048;-62
2024/01/08 06:37:35;;;;;;;5.63;3.28;;;;;;;;;;5064061;28;20056;-62
2024/01/08 06:40:04;;;;;;;3.53;2.97;;;;;;;;;;5066454;28;20053;-62
2024/01/08 06:42:32;;;;;;;4.78;3.10;;;;;;;;;;5065821;28;20048;-62
2024/01/08 06:45:22;;;;;;;3.22;2.80;;;;;;;;;;5065862;28;20512;-61
2024/01/08 06:47:50;;;;;;;4.63;2.90;;;;;;;;;;5063969;28;20048;-62
2024/01/08 06:50:19;;;;;;;5.65;2.92;;;;;;;;;;5064825;28;20465;-61
2024/01/08 06:52:48;;;;;;;4.40;2.88;;;;;;;;;;5066478;28;20282;-62
2024/01/08 06:55:17;;;;;;;3.72;2.90;;;;;;;;;;5066058;28;20143;-61
2024/01/08 06:57:47;;;;;;;4.47;3.15;;;;;;;;;;5066071;28;20044;-61
2024/01/08 07:00:18;;;;;;;4.15;2.78;;;;;;;;;;5066330;28;20094;-61
2024/01/08 07:02:47;;;;;;;4.20;2.72;;;;;;;;;;5065461;28;20047;-62
2024/01/08 07:05:17;;;;;;;5.85;3.17;;;;;;;;;;5068820;28;20054;-62
2024/01/08 07:07:45;;;;;;;6.25;3.55;;;;;;;;;;5068099;28;20060;-64
2024/01/08 07:10:14;;;;;;;4.32;3.30;;;;;;;;;;5069663;28;20056;-64
2024/01/08 07:12:42;;;;;;;4.43;2.97;;;;;;;;;;5070529;28;20049;-63
2024/01/08 07:15:31;;;;;;;4.50;3.33;;;;;;;;;;5067904;28;20064;-64
2024/01/08 07:18:00;;;;;;;4.03;2.97;;;;;;;;;;5065877;28;20084;-63
2024/01/08 07:20:29;;;;;;;3.70;3.10;;;;;;;;;;5069929;28;20401;-63
2024/01/08 07:22:58;;;;;;;4.25;2.92;;;;;;;;;;5069869;28;20045;-63
2024/01/08 07:25:26;;;;;;;3.17;2.80;;;;;;;;;;5069151;28;20059;-63
2024/01/08 07:27:54;;;;;;;4.22;2.95;;;;;;;;;;5068653;28;20056;-63
2024/01/08 07:30:23;;;;;;;4.30;3.30;;;;;;;;;;5069068;28;20040;-62
2024/01/08 07:32:51;;;;;;;3.65;2.95;;;;;;;;;;5068274;28;20048;-63
2024/01/08 07:35:22;;;;;;;6.38;3.35;;;;;;;;;;5061023;28;20131;-63
2024/01/08 07:37:55;;;;;;;4.30;2.85;;;;;;;;;;5070255;28;20048;-63
2024/01/08 07:40:24;;;;;;;4.45;3.28;;;;;;;;;;5069732;28;20056;-63
2024/01/08 07:42:53;;;;;;;4.95;3.53;;;;;;;;;;5069604;28;20052;-63
2024/01/08 07:45:23;;;;;;;6.65;3.67;;;;;;;;;;5069656;28;20448;-63
2024/01/08 07:47:52;;;;;;;4.35;2.88;;;;;;;;;;5069552;28;20420;-63
2024/01/08 07:50:22;;;;;;;4.03;3.17;;;;;;;;;;5069272;28;20489;-64
2024/01/08 07:52:51;;;;;;;4.40;2.75;;;;;;;;;;5069502;28;20343;-63
2024/01/08 07:55:20;;;;;;;5.28;3.30;;;;;;;;;;5069474;28;20052;-65
2024/01/08 07:57:49;;;;;;;5.68;3.78;;;;;;;;;;5069830;28;20455;-65
2024/01/08 08:00:19;;;;;;;6.30;3.17;;;;;;;;;;5070047;28;20105;-63
2024/01/08 08:02:48;;;;;;;4.35;3.00;;;;;;;;;;5069040;28;20036;-64
2024/01/08 08:05:17;;;;;;;4.55;3.13;;;;;;;;;;5066957;28;20079;-64
2024/01/08 08:07:47;;;;;;;4.38;3.20;;;;;;;;;;5068982;28;20041;-63
2024/01/08 08:10:15;;;;;;;6.35;3.80;;;;;;;;;;5068432;28;20048;-64
2024/01/08 08:12:43;;;;;;;4.70;3.20;;;;;;;;;;5069992;28;20040;-64
2024/01/08 08:15:12;;;;;;;4.22;3.65;;;;;;;;;;5064907;28;20459;-64
2024/01/08 08:17:41;;;;;;;7.68;4.03;;;;;;;;;;5061586;28;20094;-64
2024/01/08 08:20:10;;;;;;;5.47;3.42;;;;;;;;;;5067970;28;20055;-65
2024/01/08 08:22:39;;;;;;;6.32;3.63;;;;;;;;;;5069795;28;20040;-63
2024/01/08 08:25:13;;;;;;;3.85;2.83;;;;;;;;;;5069768;28;20492;-63
2024/01/08 08:27:41;;;;;;;4.15;2.95;;;;;;;;;;5068920;28;20123;-67
2024/01/08 08:30:12;;;;;;;5.57;3.83;;;;;;;;;;5067629;28;20040;-62
2024/01/08 08:32:40;;;;;;;7.30;3.53;;;;;;;;;;5069665;28;20131;-62
2024/01/08 08:35:09;;;;;;;6.60;3.72;;;;;;;;;;5068508;28;20147;-64
2024/01/08 08:37:38;;;;;;;7.00;3.80;;;;;;;;;;5068226;28;20127;-63
2024/01/08 08:40:22;;;;;;;5.40;3.30;;;;;;;;;;5068592;28;20052;-64
2024/01/08 08:42:51;;;;;;;5.15;3.67;;;;;;;;;;5067565;28;20505;-62
2024/01/08 08:45:20;;;;;;;5.07;3.72;;;;;;;;;;5066732;28;20131;-63
2024/01/08 08:47:49;;;;;;;5.47;3.45;;;;;;;;;;5067915;28;20063;-62
2024/01/08 08:50:19;;;;;;;4.78;3.35;;;;;;;;;;5066212;28;20044;-63
2024/01/08 08:52:48;;;;;;;7.28;4.10;;;;;;;;;;5068395;28;20632;-64
2024/01/08 08:55:16;;;;;;;5.32;3.17;;;;;;;;;;5069055;28;20044;-62
2024/01/08 08:57:46;;;;;;;5.55;3.40;;;;;;;;;;5068269;28;20481;-62
2024/01/08 09:00:15;;;;;;;5.85;3.67;;;;;;;;;;5068442;28;20048;-63
2024/01/08 09:02:52;;;;;;;7.83;3.30;;;;;;;;;;5067423;28;20558;-63
2024/01/08 09:05:21;;;;;;;7.13;4.00;;;;;;;;;;5067715;28;20048;-62
2024/01/08 09:08:03;;;;;;;3.90;3.45;;;;;;;;;;5066358;28;20528;-64
2024/01/08 09:10:33;;;;;;;4.97;3.70;;;;;;;;;;5068840;28;20507;-62
2024/01/08 09:13:03;;;;;;;4.93;3.30;;;;;;;;;;5069171;28;20056;-63
2024/01/08 09:15:31;;;;;;;6.07;3.85;;;;;;;;;;5068234;28;20091;-63
2024/01/08 09:18:00;;;;;;;7.30;3.67;;;;;;;;;;5067234;28;20106;-63
2024/01/08 09:20:29;;;;;;;5.60;3.95;;;;;;;;;;5067431;28;20053;-63
2024/01/08 09:22:59;;;;;;;5.97;3.35;;;;;;;;;;5067182;28;20071;-63
2024/01/08 09:25:27;;;;;;;7.00;3.75;;;;;;;;;;5067675;28;20041;-63
2024/01/08 09:27:56;;;;;;;5.90;3.67;;;;;;;;;;5067889;28;20497;-63
2024/01/08 09:30:26;;;;;;;6.38;3.65;;;;;;;;;;5067555;28;20060;-62
2024/01/08 09:32:54;;;;;;;5.72;4.07;;;;;;;;;;5068947;28;20102;-62
2024/01/08 09:35:24;;;;;;;5.10;3.78;;;;;;;;;;5065806;28;20060;-63
2024/01/08 09:37:53;;;;;;;5.72;3.80;;;;;;;;;;5066445;28;20476;-63
2024/01/08 09:40:21;;;;;;;5.88;3.70;;;;;;;;;;5067746;28;20045;-63
2024/01/08 09:42:50;;;;;;;7.45;4.35;;;;;;;;;;5069035;28;20136;-65
2024/01/08 09:45:23;;;;;;;8.70;4.32;;;;;;;;;;5065273;28;20045;-63
2024/01/08 09:47:53;;;;;;;4.43;3.17;;;;;;;;;;5068503;28;20052;-63
2024/01/08 09:50:22;;;;;;;4.82;3.45;;;;;;;;;;5067390;28;20044;-63
2024/01/08 09:52:51;;;;;;;6.00;3.70;;;;;;;;;;5068765;28;20518;-64
2024/01/08 09:55:20;;;;;;;5.18;3.65;;;;;;;;;;5064226;28;20102;-64
2024/01/08 09:57:49;;;;;;;7.05;3.75;;;;;;;;;;5066518;28;20533;-62
2024/01/08 10:00:18;;;;;;;4.60;3.05;;;;;;;;;;5067830;28;20044;-62
2024/01/08 10:02:54;;;;;;;6.13;4.05;;;;;;;;;;5067635;28;20124;-64
2024/01/08 10:05:27;;;;;;;5.65;3.78;;;;;;;;;;5067185;28;20048;-62
2024/01/08 10:07:56;;;;;;;9.02;4.15;;;;;;;;;;5067187;28;20045;-62
2024/01/08 10:10:25;;;;;;;5.32;3.88;;;;;;;;;;5067954;28;20547;-62
2024/01/08 10:12:54;;;;;;;6.88;3.63;;;;;;;;;;5067501;28;20493;-63
2024/01/08 10:15:23;;;;;;;7.50;3.38;;;;;;;;;;5068564;28;20075;-62
2024/01/08 10:17:52;;;;;;;7.18;4.05;;;;;;;;;;5066003;28;20040;-63
2024/01/08 10:20:21;;;;;;;8.15;4.18;;;;;;;;;;5067314;28;20069;-63
2024/01/08 10:23:04;;;;;;;6.22;4.38;;;;;;;;;;5067241;28;20675;-62
2024/01/08 10:25:34;;;;;;;4.78;3.67;;;;;;;;;;5067265;28;20405;-63
2024/01/08 10:28:02;;;;;;;6.90;4.20;;;;;;;;;;5064729;28;20044;-63
2024/01/08 10:30:31;;;;;;;7.82;3.92;;;;;;;;;;5065264;28;20048;-62
2024/01/08 10:33:00;;;;;;;7.22;3.63;;;;;;;;;;5067356;28;20499;-63
2024/01/08 10:35:30;;;;;;;6.45;3.85;;;;;;;;;;5066405;28;20048;-62
2024/01/08 10:38:03;;;;;;;7.43;4.13;;;;;;;;;;5068836;28;20157;-64
2024/01/08 10:40:32;;;;;;;5.10;3.97;;;;;;;;;;5070308;28;20235;-61
2024/01/08 10:43:01;;;;;;;7.68;4.15;;;;;;;;;;5070648;28;20048;-63
2024/01/08 10:45:29;;;;;;;7.35;3.97;;;;;;;;;;5071809;28;20056;-61
2024/01/08 10:48:02;;;;;;;6.85;3.90;;;;;;;;;;5071415;28;20097;-62
2024/01/08 10:50:31;;;;;;;5.45;4.15;;;;;;;;;;5071353;28;20071;-63
2024/01/08 10:52:59;;;;;;;4.22;3.03;;;;;;;;;;5071046;28;20481;-64
2024/01/08 10:55:30;;;;;;;5.28;3.47;;;;;;;;;;5070922;28;20049;-64
2024/01/08 10:58:02;;;;;;;5.63;3.55;;;;;;;;;;5070943;28;20049;-64
2024/01/08 11:00:31;;;;;;;5.97;3.92;;;;;;;;;;5072452;28;20052;-64
2024/01/08 11:03:00;;;;;;;5.30;4.10;;;;;;;;;;5070225;28;20048;-63
2024/01/08 11:05:30;;;;;;;4.28;3.35;;;;;;;;;;5068694;28;20140;-64
2024/01/08 11:07:58;;;;;;;6.22;4.35;;;;;;;;;;5070839;28;20114;-63
2024/01/08 11:10:30;;;;;;;6.57;4.18;;;;;;;;;;5071038;28;20041;-63
2024/01/08 11:12:59;;;;;;;8.35;3.45;;;;;;;;;;5071407;28;20048;-64
2024/01/08 11:15:28;;;;;;;5.63;3.20;;;;;;;;;;5069654;28;20048;-64
2024/01/08 11:17:58;;;;;;;6.05;3.78;;;;;;;;;;5069753;28;20045;-66
2024/01/08 11:20:43;;;;;;;5.53;3.80;;;;;;;;;;5070819;28;20135;-64
2024/01/08 11:23:31;;;;;;;5.75;3.72;;;;;;;;;;5070322;28;20068;-63
2024/01/08 11:26:02;;;;;;;6.50;3.63;;;;;;;;;;5068557;28;20576;-63
2024/01/08 11:28:32;;;;;;;4.22;3.47;;;;;;;;;;5070690;28;21018;-62
2024/01/08 11:31:20;;;;;;;5.70;3.83;;;;;;;;;;5071393;28;20106;-62
2024/01/08 11:33:59;;;;;;;6.10;3.92;;;;;;;;;;5071031;28;20064;-63
2024/01/08 11:36:35;;;;;;;6.18;3.65;;;;;;;;;;5067635;28;20405;-64
2024/01/08 11:39:13;;;;;;;5.88;3.72;;;;;;;;;;5069160;28;20045;-62
2024/01/08 11:41:43;;;;;;;6.55;3.60;;;;;;;;;;5069149;28;20056;-63
2024/01/08 11:44:14;;;;;;;5.25;3.45;;;;;;;;;;5070694;28;20489;-62
2024/01/08 11:46:42;;;;;;;4.45;3.05;;;;;;;;;;5068079;28;20110;-64
2024/01/08 11:49:11;;;;;;;6.00;4.00;;;;;;;;;;5069885;28;20094;-62
2024/01/08 11:51:42;;;;;;;4.22;3.55;;;;;;;;;;5069965;28;20045;-63
2024/01/08 11:54:13;;;;;;;6.28;4.15;;;;;;;;;;5069178;28;20045;-62
2024/01/08 11:56:43;;;;;;;5.88;3.88;;;;;;;;;;5069759;28;20098;-62
2024/01/08 11:59:12;;;;;;;4.68;3.45;;;;;;;;;;5067905;28;20136;-64
2024/01/08 12:01:40;;;;;;;6.53;3.58;;;;;;;;;;5068244;28;20063;-63
2024/01/08 12:04:09;;;;;;;5.35;3.90;;;;;;;;;;5067344;28;20463;-62
2024/01/08 12:06:37;;;;;;;5.75;3.75;;;;;;;;;;5070211;28;20044;-62
2024/01/08 12:09:06;;;;;;;5.82;3.72;;;;;;;;;;5069977;28;20044;-64
2024/01/08 12:11:35;;;;;;;6.30;3.45;;;;;;;;;;5069680;28;20059;-62
2024/01/08 12:14:05;;;;;;;6.75;4.15;;;;;;;;;;5068613;28;20076;-63
2024/01/08 12:16:34;;;;;;;8.52;4.30;;;;;;;;;;5067120;28;20482;-64
2024/01/08 12:19:03;;;;;;;6.32;4.03;;;;;;;;;;5069022;28;20054;-63
2024/01/08 12:21:32;;;;;;;5.60;3.25;;;;;;;;;;5068168;28;20504;-63
2024/01/08 12:24:13;;;;;;;5.50;3.70;;;;;;;;;;5069832;28;20048;-63
2024/01/08 12:26:42;;;;;;;7.78;4.13;;;;;;;;;;5066843;28;20053;-62
2024/01/08 12:29:12;;;;;;;7.45;3.85;;;;;;;;;;5068699;28;20494;-62
2024/01/08 12:31:43;;;;;;;6.07;3.95;;;;;;;;;;5069473;28;20032;-63
2024/01/08 12:34:11;;;;;;;8.52;5.00;;;;;;;;;;5069284;28;20447;-62
2024/01/08 12:36:39;;;;;;;5.72;3.60;;;;;;;;;;5068455;28;20055;-62
2024/01/08 12:39:08;;;;;;;6.10;3.72;;;;;;;;;;5069298;28;20349;-63
2024/01/08 12:41:37;;;;;;;7.50;4.40;;;;;;;;;;5068896;28;20048;-62
2024/01/08 12:44:07;;;;;;;5.47;3.83;;;;;;;;;;5068148;28;20078;-63
2024/01/08 12:46:37;;;;;;;6.70;3.95;;;;;;;;;;5065453;28;20055;-65
2024/01/08 12:49:06;;;;;;;5.50;4.15;;;;;;;;;;5066706;28;20044;-64
2024/01/08 12:51:35;;;;;;;6.20;3.45;;;;;;;;;;5069181;28;20067;-63
2024/01/08 12:54:03;;;;;;;7.90;5.03;;;;;;;;;;5069942;28;20041;-62
2024/01/08 12:56:32;;;;;;;4.88;3.65;;;;;;;;;;5068668;28;20053;-64
2024/01/08 12:59:00;;;;;;;4.80;3.55;;;;;;;;;;5068352;28;20052;-62
2024/01/08 13:01:29;;;;;;;7.20;4.18;;;;;;;;;;5067740;28;20060;-63
2024/01/08 13:03:59;;;;;;;6.55;4.28;;;;;;;;;;5064349;28;20067;-62
2024/01/08 13:06:27;;;;;;;5.93;3.95;;;;;;;;;;5066988;28;20087;-62
2024/01/08 13:08:56;;;;;;;6.40;4.40;;;;;;;;;;5064846;28;20050;-62
2024/01/08 13:11:25;;;;;;;5.57;4.65;;;;;;;;;;5065496;28;20127;-63
2024/01/08 13:13:53;;;;;;;6.50;4.28;;;;;;;;;;5066932;28;20049;-63
2024/01/08 13:16:22;;;;;;;6.18;4.38;;;;;;;;;;5067227;28;20102;-63
2024/01/08 13:18:50;;;;;;;8.13;4.07;;;;;;;;;;5066827;28;20048;-62
2024/01/08 13:21:20;;;;;;;6.32;4.47;;;;;;;;;;5066426;28;20053;-62
2024/01/08 13:23:48;;;;;;;6.63;5.00;;;;;;;;;;5064781;28;20044;-63
2024/01/08 13:26:17;;;;;;;5.70;4.15;;;;;;;;;;5065178;28;20055;-63
2024/01/08 13:28:46;;;;;;;7.40;4.78;;;;;;;;;;5067023;28;20071;-63
2024/01/08 13:31:14;;;;;;;6.35;4.45;;;;;;;;;;5067441;28;20063;-63
2024/01/08 13:33:43;;;;;;;6.97;4.35;;;;;;;;;;5066511;28;20052;-63
2024/01/08 13:36:12;;;;;;;5.82;3.85;;;;;;;;;;5064050;28;20061;-64
2024/01/08 13:38:41;;;;;;;6.55;4.75;;;;;;;;;;5065522;28;20048;-63
2024/01/08 13:41:10;;;;;;;5.60;3.92;;;;;;;;;;5066105;28;20036;-63
2024/01/08 13:43:40;;;;;;;7.57;4.65;;;;;;;;;;5066176;28;20067;-64
2024/01/08 13:46:09;;;;;;;6.70;4.65;;;;;;;;;;5065440;28;20059;-63
2024/01/08 13:48:39;;;;;;;6.15;4.47;;;;;;;;;;5065070;28;20674;-62
2024/01/08 13:51:09;;;;;;;8.35;4.55;;;;;;;;;;5066007;28;20059;-62
2024/01/08 13:53:39;;;;;;;6.18;4.50;;;;;;;;;;5064620;28;20052;-63
2024/01/08 13:56:09;;;;;;;6.43;4.13;;;;;;;;;;5066192;28;20539;-62
2024/01/08 13:58:37;;;;;;;5.35;3.80;;;;;;;;;;5066388;28;20052;-63
2024/01/08 14:01:08;;;;;;;6.53;4.07;;;;;;;;;;5065847;28;20048;-63
2024/01/08 14:03:36;;;;;;;5.38;3.95;;;;;;;;;;5066251;28;20055;-63
2024/01/08 14:06:05;;;;;;;6.85;4.10;;;;;;;;;;5065801;28;20576;-62
2024/01/08 14:08:33;;;;;;;7.22;4.68;;;;;;;;;;5066768;28;20102;-62
2024/01/08 14:11:03;;;;;;;8.15;4.72;;;;;;;;;;5065127;28;20578;-63
2024/01/08 14:13:33;;;;;;;6.65;4.47;;;;;;;;;;5066209;28;20051;-64
2024/01/08 14:16:03;;;;;;;6.10;3.90;;;;;;;;;;5064590;28;20060;-64
2024/01/08 14:18:31;;;;;;;8.27;4.72;;;;;;;;;;5065876;28;20123;-64
2024/01/08 14:21:00;;;;;;;8.18;4.40;;;;;;;;;;5067508;28;20106;-63
2024/01/08 14:23:29;;;;;;;7.28;4.45;;;;;;;;;;5065827;28;20056;-63
2024/01/08 14:25:58;;;;;;;4.95;3.50;;;;;;;;;;5063553;28;20072;-63
2024/01/08 14:28:30;;;;;;;5.38;3.95;;;;;;;;;;5064579;28;20131;-63
2024/01/08 14:31:00;;;;;;;5.85;4.07;;;;;;;;;;5064804;28;20258;-63
2024/01/08 14:33:28;;;;;;;7.35;4.18;;;;;;;;;;5064909;28;20076;-62
2024/01/08 14:35:57;;;;;;;5.40;4.00;;;;;;;;;;5062916;28;20055;-63
2024/01/08 14:38:26;;;;;;;9.15;4.28;;;;;;;;;;5064830;28;20052;-64
2024/01/08 14:40:55;;;;;;;6.00;4.15;;;;;;;;;;5065751;28;20140;-62
2024/01/08 14:43:23;;;;;;;7.38;4.35;;;;;;;;;;5064092;28;20060;-63
2024/01/08 14:45:52;;;;;;;5.80;3.70;;;;;;;;;;5065761;28;20106;-63
2024/01/08 14:48:22;;;;;;;7.65;4.78;;;;;;;;;;5062183;28;20080;-62
2024/01/08 14:50:51;;;;;;;5.45;4.20;;;;;;;;;;5065397;28;20514;-65
2024/01/08 14:53:19;;;;;;;5.03;3.38;;;;;;;;;;5064572;28;20052;-63
2024/01/08 14:55:48;;;;;;;4.55;3.15;;;;;;;;;;5066414;28;20380;-63